sensor_id;sensor_type;location;lat;lon;timestamp;pressure;altitude;pressure_sealevel;temperature;humidity
4586;BME280;2305;50.118;8.952;2023-04-20T00:01:23;100735.38;;;8.29;100.00
4586;BME280;2305;50.118;8.952;2023-04-20T00:03:51;100741.13;;;8.34;100.00
4586;BME280;2305;50.118;8.952;2023-04-20T00:06:19;100733.38;;;8.32;100.00
4586;BME280;2305;50.118;8.952;2023-04-20T00:08:48;100731.59;;;8.33;100.00
4586;BME280;2305;50.118;8.952;2023-04-20T00:11:16;100727.28;;;8.32;100.00
4586;BME280;2305;50.118;8.952;2023-04-20T00:13:44;100725.59;;;8.31;100.00
4586;BME280;2305;50.118;8.952;2023-04-20T00:16:15;100714.56;;;8.26;100.00
4586;BME280;2305;50.118;8.952;2023-04-20T00:18:44;100718.03;;;8.26;100.00
4586;BME280;2305;50.118;8.952;2023-04-20T00:21:13;100714.69;;;8.24;100.00
4586;BME280;2305;50.118;8.952;2023-04-20T00:23:41;100710.34;;;8.23;100.00
4586;BME280;2305;50.118;8.952;2023-04-20T00:26:09;100705.00;;;8.25;100.00
4586;BME280;2305;50.118;8.952;2023-04-20T00:28:39;100707.44;;;8.28;100.00
4586;BME280;2305;50.118;8.952;2023-04-20T00:31:08;100701.03;;;8.32;100.00
4586;BME280;2305;50.118;8.952;2023-04-20T00:33:37;100700.72;;;8.36;100.00
4586;BME280;2305;50.118;8.952;2023-04-20T00:36:07;100697.66;;;8.30;100.00
4586;BME280;2305;50.118;8.952;2023-04-20T00:38:35;100692.59;;;8.27;100.00
4586;BME280;2305;50.118;8.952;2023-04-20T00:41:03;100688.13;;;8.29;100.00
4586;BME280;2305;50.118;8.952;2023-04-20T00:43:31;100696.81;;;8.29;100.00
4586;BME280;2305;50.118;8.952;2023-04-20T00:45:59;100683.69;;;8.29;100.00
4586;BME280;2305;50.118;8.952;2023-04-20T00:48:29;100674.69;;;8.33;100.00
4586;BME280;2305;50.118;8.952;2023-04-20T00:50:58;100666.81;;;8.33;100.00
4586;BME280;2305;50.118;8.952;2023-04-20T00:53:27;100667.13;;;8.29;100.00
4586;BME280;2305;50.118;8.952;2023-04-20T00:55:55;100658.47;;;8.27;100.00
4586;BME280;2305;50.118;8.952;2023-04-20T00:58:23;100654.09;;;8.27;100.00
4586;BME280;2305;50.118;8.952;2023-04-20T01:00:52;100656.81;;;8.26;100.00
4586;BME280;2305;50.118;8.952;2023-04-20T01:03:21;100648.75;;;8.29;100.00
4586;BME280;2305;50.118;8.952;2023-04-20T01:05:49;100639.69;;;8.33;100.00
4586;BME280;2305;50.118;8.952;2023-04-20T01:08:24;100636.34;;;8.31;100.00
4586;BME280;2305;50.118;8.952;2023-04-20T01:10:56;100632.88;;;8.30;100.00
4586;BME280;2305;50.118;8.952;2023-04-20T01:13:26;100630.38;;;8.29;100.00
4586;BME280;2305;50.118;8.952;2023-04-20T01:15:57;100635.63;;;8.29;100.00
4586;BME280;2305;50.118;8.952;2023-04-20T01:18:25;100625.84;;;8.31;100.00
4586;BME280;2305;50.118;8.952;2023-04-20T01:20:55;100625.22;;;8.27;100.00
4586;BME280;2305;50.118;8.952;2023-04-20T01:23:25;100625.72;;;8.20;100.00
4586;BME280;2305;50.118;8.952;2023-04-20T01:25:55;100624.66;;;8.22;100.00
4586;BME280;2305;50.118;8.952;2023-04-20T01:28:24;100633.31;;;8.24;100.00
4586;BME280;2305;50.118;8.952;2023-04-20T01:30:52;100624.13;;;8.17;100.00
4586;BME280;2305;50.118;8.952;2023-04-20T01:33:23;100619.78;;;8.16;100.00
4586;BME280;2305;50.118;8.952;2023-04-20T01:35:51;100620.75;;;8.15;100.00
4586;BME280;2305;50.118;8.952;2023-04-20T01:38:21;100615.31;;;8.18;100.00
4586;BME280;2305;50.118;8.952;2023-04-20T01:40:54;100611.91;;;8.16;100.00
4586;BME280;2305;50.118;8.952;2023-04-20T01:43:22;100613.00;;;8.14;100.00
4586;BME280;2305;50.118;8.952;2023-04-20T01:45:50;100609.59;;;8.12;100.00
4586;BME280;2305;50.118;8.952;2023-04-20T01:48:18;100616.97;;;8.07;100.00
4586;BME280;2305;50.118;8.952;2023-04-20T01:50:50;100615.25;;;8.06;100.00
4586;BME280;2305;50.118;8.952;2023-04-20T01:53:19;100607.50;;;8.04;100.00
4586;BME280;2305;50.118;8.952;2023-04-20T01:55:48;100606.88;;;8.01;100.00
4586;BME280;2305;50.118;8.952;2023-04-20T01:58:19;100614.09;;;7.97;100.00
4586;BME280;2305;50.118;8.952;2023-04-20T02:00:50;100613.16;;;7.98;100.00
4586;BME280;2305;50.118;8.952;2023-04-20T02:03:18;100607.19;;;7.96;100.00
4586;BME280;2305;50.118;8.952;2023-04-20T02:05:47;100608.09;;;7.95;100.00
4586;BME280;2305;50.118;8.952;2023-04-20T02:08:17;100608.09;;;7.95;100.00
4586;BME280;2305;50.118;8.952;2023-04-20T02:10:48;100602.97;;;7.94;100.00
4586;BME280;2305;50.118;8.952;2023-04-20T02:13:16;100605.59;;;7.94;100.00
4586;BME280;2305;50.118;8.952;2023-04-20T02:15:48;100604.84;;;7.92;100.00
4586;BME280;2305;50.118;8.952;2023-04-20T02:18:16;100600.34;;;7.94;100.00
4586;BME280;2305;50.118;8.952;2023-04-20T02:20:45;100602.03;;;7.95;100.00
4586;BME280;2305;50.118;8.952;2023-04-20T02:23:12;100602.13;;;7.93;100.00
4586;BME280;2305;50.118;8.952;2023-04-20T02:25:41;100596.16;;;7.91;100.00
4586;BME280;2305;50.118;8.952;2023-04-20T02:28:10;100598.13;;;7.88;100.00
4586;BME280;2305;50.118;8.952;2023-04-20T02:30:39;100589.53;;;7.86;100.00
4586;BME280;2305;50.118;8.952;2023-04-20T02:33:08;100586.16;;;7.84;100.00
4586;BME280;2305;50.118;8.952;2023-04-20T02:35:36;100589.81;;;7.81;100.00
4586;BME280;2305;50.118;8.952;2023-04-20T02:38:05;100591.94;;;7.89;100.00
4586;BME280;2305;50.118;8.952;2023-04-20T02:40:33;100585.56;;;7.93;100.00
4586;BME280;2305;50.118;8.952;2023-04-20T02:43:05;100588.19;;;7.93;100.00
4586;BME280;2305;50.118;8.952;2023-04-20T02:45:38;100587.00;;;7.97;100.00
4586;BME280;2305;50.118;8.952;2023-04-20T02:48:09;100580.72;;;7.99;100.00
4586;BME280;2305;50.118;8.952;2023-04-20T02:50:40;100582.09;;;8.05;100.00
4586;BME280;2305;50.118;8.952;2023-04-20T02:53:21;100580.97;;;8.09;100.00
4586;BME280;2305;50.118;8.952;2023-04-20T02:55:58;100581.69;;;8.11;100.00
4586;BME280;2305;50.118;8.952;2023-04-20T02:58:54;100578.34;;;8.09;100.00
4586;BME280;2305;50.118;8.952;2023-04-20T03:01:34;100573.81;;;8.11;100.00
4586;BME280;2305;50.118;8.952;2023-04-20T03:04:11;100567.75;;;8.10;100.00
4586;BME280;2305;50.118;8.952;2023-04-20T03:06:48;100568.78;;;8.08;100.00
4586;BME280;2305;50.118;8.952;2023-04-20T03:09:23;100573.72;;;8.12;100.00
4586;BME280;2305;50.118;8.952;2023-04-20T03:11:53;100571.81;;;8.14;100.00
4586;BME280;2305;50.118;8.952;2023-04-20T03:14:43;100566.47;;;8.16;100.00
4586;BME280;2305;50.118;8.952;2023-04-20T03:17:14;100567.97;;;8.20;100.00
4586;BME280;2305;50.118;8.952;2023-04-20T03:19:44;100565.78;;;8.26;100.00
4586;BME280;2305;50.118;8.952;2023-04-20T03:22:12;100562.22;;;8.27;100.00
4586;BME280;2305;50.118;8.952;2023-04-20T03:24:41;100562.94;;;8.29;100.00
4586;BME280;2305;50.118;8.952;2023-04-20T03:27:20;100562.13;;;8.29;100.00
4586;BME280;2305;50.118;8.952;2023-04-20T03:30:01;100562.84;;;8.31;100.00
4586;BME280;2305;50.118;8.952;2023-04-20T03:32:29;100559.25;;;8.32;100.00
4586;BME280;2305;50.118;8.952;2023-04-20T03:35:01;100555.69;;;8.33;100.00
4586;BME280;2305;50.118;8.952;2023-04-20T03:37:29;100556.41;;;8.35;100.00
4586;BME280;2305;50.118;8.952;2023-04-20T03:39:58;100555.38;;;8.37;100.00
4586;BME280;2305;50.118;8.952;2023-04-20T03:42:26;100564.91;;;8.38;100.00
4586;BME280;2305;50.118;8.952;2023-04-20T03:44:55;100565.69;;;8.40;100.00
4586;BME280;2305;50.118;8.952;2023-04-20T03:47:24;100563.88;;;8.41;100.00
4586;BME280;2305;50.118;8.952;2023-04-20T03:49:52;100556.75;;;8.43;100.00
4586;BME280;2305;50.118;8.952;2023-04-20T03:52:21;100558.53;;;8.42;100.00
4586;BME280;2305;50.118;8.952;2023-04-20T03:54:49;100554.31;;;8.40;100.00
4586;BME280;2305;50.118;8.952;2023-04-20T03:57:18;100556.31;;;8.36;100.00
4586;BME280;2305;50.118;8.952;2023-04-20T03:59:47;100553.69;;;8.36;100.00
4586;BME280;2305;50.118;8.952;2023-04-20T04:02:19;100556.94;;;8.40;100.00
4586;BME280;2305;50.118;8.952;2023-04-20T04:04:50;100554.22;;;8.41;100.00
4586;BME280;2305;50.118;8.952;2023-04-20T04:07:22;100546.44;;;8.40;100.00
4586;BME280;2305;50.118;8.952;2023-04-20T04:09:50;100556.31;;;8.36;100.00
4586;BME280;2305;50.118;8.952;2023-04-20T04:12:19;100551.28;;;8.33;100.00
4586;BME280;2305;50.118;8.952;2023-04-20T04:14:48;100542.56;;;8.33;100.00
4586;BME280;2305;50.118;8.952;2023-04-20T04:17:19;100547.94;;;8.31;100.00
4586;BME280;2305;50.118;8.952;2023-04-20T04:19:47;100541.00;;;8.30;100.00
4586;BME280;2305;50.118;8.952;2023-04-20T04:22:15;100539.53;;;8.26;100.00
4586;BME280;2305;50.118;8.952;2023-04-20T04:25:01;100539.44;;;8.28;100.00
4586;BME280;2305;50.118;8.952;2023-04-20T04:27:31;100544.56;;;8.29;100.00
4586;BME280;2305;50.118;8.952;2023-04-20T04:30:01;100545.31;;;8.31;100.00
4586;BME280;2305;50.118;8.952;2023-04-20T04:32:31;100538.59;;;8.27;100.00
4586;BME280;2305;50.118;8.952;2023-04-20T04:35:01;100537.97;;;8.24;100.00
4586;BME280;2305;50.118;8.952;2023-04-20T04:37:29;100539.72;;;8.23;100.00
4586;BME280;2305;50.118;8.952;2023-04-20T04:40:01;100536.66;;;8.17;100.00
4586;BME280;2305;50.118;8.952;2023-04-20T04:42:34;100536.66;;;8.17;100.00
4586;BME280;2305;50.118;8.952;2023-04-20T04:45:06;100541.53;;;8.23;100.00
4586;BME280;2305;50.118;8.952;2023-04-20T04:47:39;100540.47;;;8.25;100.00
4586;BME280;2305;50.118;8.952;2023-04-20T04:50:09;100537.84;;;8.25;100.00
4586;BME280;2305;50.118;8.952;2023-04-20T04:52:37;100531.75;;;8.25;100.00
4586;BME280;2305;50.118;8.952;2023-04-20T04:55:09;100533.34;;;8.27;100.00
4586;BME280;2305;50.118;8.952;2023-04-20T04:57:37;100536.28;;;8.23;100.00
4586;BME280;2305;50.118;8.952;2023-04-20T05:00:09;100525.56;;;8.26;100.00
4586;BME280;2305;50.118;8.952;2023-04-20T05:02:38;100528.19;;;8.26;100.00
4586;BME280;2305;50.118;8.952;2023-04-20T05:05:07;100533.88;;;8.32;100.00
4586;BME280;2305;50.118;8.952;2023-04-20T05:07:35;100535.97;;;8.27;100.00
4586;BME280;2305;50.118;8.952;2023-04-20T05:10:08;100529.84;;;8.27;100.00
4586;BME280;2305;50.118;8.952;2023-04-20T05:12:39;100535.72;;;8.30;100.00
4586;BME280;2305;50.118;8.952;2023-04-20T05:15:07;100536.69;;;8.29;100.00
4586;BME280;2305;50.118;8.952;2023-04-20T05:17:35;100540.06;;;8.31;100.00
4586;BME280;2305;50.118;8.952;2023-04-20T05:20:05;100541.84;;;8.31;100.00
4586;BME280;2305;50.118;8.952;2023-04-20T05:22:36;100538.03;;;8.35;100.00
4586;BME280;2305;50.118;8.952;2023-04-20T05:25:04;100543.81;;;8.40;100.00
4586;BME280;2305;50.118;8.952;2023-04-20T05:27:34;100542.47;;;8.47;100.00
4586;BME280;2305;50.118;8.952;2023-04-20T05:30:02;100540.78;;;8.46;100.00
4586;BME280;2305;50.118;8.952;2023-04-20T05:32:48;100545.41;;;8.42;100.00
4586;BME280;2305;50.118;8.952;2023-04-20T05:35:18;100547.72;;;8.47;100.00
4586;BME280;2305;50.118;8.952;2023-04-20T05:37:47;100543.94;;;8.51;100.00
4586;BME280;2305;50.118;8.952;2023-04-20T05:40:15;100546.44;;;8.52;100.00
4586;BME280;2305;50.118;8.952;2023-04-20T05:42:46;100546.63;;;8.62;100.00
4586;BME280;2305;50.118;8.952;2023-04-20T05:45:14;100544.31;;;8.70;100.00
4586;BME280;2305;50.118;8.952;2023-04-20T05:47:51;100552.53;;;8.78;100.00
4586;BME280;2305;50.118;8.952;2023-04-20T05:50:21;100547.03;;;8.81;100.00
4586;BME280;2305;50.118;8.952;2023-04-20T05:52:52;100544.41;;;8.81;100.00
4586;BME280;2305;50.118;8.952;2023-04-20T05:55:21;100540.63;;;8.85;100.00
4586;BME280;2305;50.118;8.952;2023-04-20T05:57:51;100545.66;;;8.88;100.00
4586;BME280;2305;50.118;8.952;2023-04-20T06:00:19;100553.09;;;8.93;100.00
4586;BME280;2305;50.118;8.952;2023-04-20T06:02:52;100558.13;;;8.96;100.00
4586;BME280;2305;50.118;8.952;2023-04-20T06:05:21;100553.59;;;8.98;100.00
4586;BME280;2305;50.118;8.952;2023-04-20T06:07:49;100564.63;;;9.03;100.00
4586;BME280;2305;50.118;8.952;2023-04-20T06:10:18;100551.53;;;8.91;100.00
4586;BME280;2305;50.118;8.952;2023-04-20T06:12:48;100558.78;;;8.88;100.00
4586;BME280;2305;50.118;8.952;2023-04-20T06:15:18;100559.50;;;8.89;100.00
4586;BME280;2305;50.118;8.952;2023-04-20T06:17:46;100556.03;;;9.01;100.00
4586;BME280;2305;50.118;8.952;2023-04-20T06:20:15;100554.13;;;9.03;100.00
4586;BME280;2305;50.118;8.952;2023-04-20T06:22:43;100560.84;;;9.07;100.00
4586;BME280;2305;50.118;8.952;2023-04-20T06:25:12;100546.84;;;9.07;100.00
4586;BME280;2305;50.118;8.952;2023-04-20T06:27:41;100553.69;;;9.09;100.00
4586;BME280;2305;50.118;8.952;2023-04-20T06:30:12;100544.22;;;9.07;100.00
4586;BME280;2305;50.118;8.952;2023-04-20T06:32:41;100538.97;;;9.07;100.00
4586;BME280;2305;50.118;8.952;2023-04-20T06:35:09;100542.31;;;9.09;100.00
4586;BME280;2305;50.118;8.952;2023-04-20T06:37:37;100529.91;;;9.11;100.00
4586;BME280;2305;50.118;8.952;2023-04-20T06:40:07;100535.28;;;9.09;100.00
4586;BME280;2305;50.118;8.952;2023-04-20T06:42:37;100529.50;;;9.04;100.00
4586;BME280;2305;50.118;8.952;2023-04-20T06:45:07;100529.13;;;8.98;100.00
4586;BME280;2305;50.118;8.952;2023-04-20T06:47:36;100527.44;;;8.97;100.00
4586;BME280;2305;50.118;8.952;2023-04-20T06:50:07;100529.94;;;8.98;100.00
4586;BME280;2305;50.118;8.952;2023-04-20T06:52:39;100540.97;;;9.03;100.00
4586;BME280;2305;50.118;8.952;2023-04-20T06:55:09;100546.84;;;9.07;100.00
4586;BME280;2305;50.118;8.952;2023-04-20T06:57:37;100550.94;;;9.11;100.00
4586;BME280;2305;50.118;8.952;2023-04-20T07:00:07;100544.50;;;9.15;100.00
4586;BME280;2305;50.118;8.952;2023-04-20T07:02:42;100543.25;;;9.20;100.00
4586;BME280;2305;50.118;8.952;2023-04-20T07:05:16;100543.72;;;9.25;100.00
4586;BME280;2305;50.118;8.952;2023-04-20T07:07:45;100538.66;;;9.35;100.00
4586;BME280;2305;50.118;8.952;2023-04-20T07:10:15;100541.69;;;9.41;100.00
4586;BME280;2305;50.118;8.952;2023-04-20T07:12:44;100550.56;;;9.51;100.00
4586;BME280;2305;50.118;8.952;2023-04-20T07:15:13;100544.63;;;9.60;100.00
4586;BME280;2305;50.118;8.952;2023-04-20T07:17:41;100538.91;;;9.66;100.00
4586;BME280;2305;50.118;8.952;2023-04-20T07:20:10;100535.38;;;9.78;100.00
4586;BME280;2305;50.118;8.952;2023-04-20T07:22:40;100535.66;;;9.97;100.00
4586;BME280;2305;50.118;8.952;2023-04-20T07:25:08;100533.78;;;10.10;100.00
4586;BME280;2305;50.118;8.952;2023-04-20T07:27:39;100540.41;;;10.27;100.00
4586;BME280;2305;50.118;8.952;2023-04-20T07:30:09;100543.06;;;10.38;100.00
4586;BME280;2305;50.118;8.952;2023-04-20T07:32:39;100541.63;;;10.45;100.00
4586;BME280;2305;50.118;8.952;2023-04-20T07:35:11;100534.44;;;10.47;100.00
4586;BME280;2305;50.118;8.952;2023-04-20T07:37:40;100536.97;;;10.59;100.00
4586;BME280;2305;50.118;8.952;2023-04-20T07:40:10;100528.81;;;10.73;100.00
4586;BME280;2305;50.118;8.952;2023-04-20T07:42:38;100529.25;;;10.89;100.00
4586;BME280;2305;50.118;8.952;2023-04-20T07:45:09;100533.81;;;10.98;100.00
4586;BME280;2305;50.118;8.952;2023-04-20T07:47:37;100530.34;;;10.98;100.00
4586;BME280;2305;50.118;8.952;2023-04-20T07:50:09;100531.31;;;10.97;100.00
4586;BME280;2305;50.118;8.952;2023-04-20T07:52:37;100528.66;;;10.86;100.00
4586;BME280;2305;50.118;8.952;2023-04-20T07:55:08;100532.53;;;10.82;100.00
4586;BME280;2305;50.118;8.952;2023-04-20T07:57:38;100529.78;;;10.72;100.00
4586;BME280;2305;50.118;8.952;2023-04-20T08:00:09;100523.31;;;10.65;100.00
4586;BME280;2305;50.118;8.952;2023-04-20T08:02:39;100526.78;;;10.66;100.00
4586;BME280;2305;50.118;8.952;2023-04-20T08:05:11;100527.47;;;10.79;100.00
4586;BME280;2305;50.118;8.952;2023-04-20T08:07:40;100529.19;;;10.80;100.00
4586;BME280;2305;50.118;8.952;2023-04-20T08:10:10;100523.06;;;10.79;100.00
4586;BME280;2305;50.118;8.952;2023-04-20T08:12:39;100522.81;;;10.93;100.00
4586;BME280;2305;50.118;8.952;2023-04-20T08:15:10;100521.31;;;11.11;100.00
4586;BME280;2305;50.118;8.952;2023-04-20T08:17:39;100513.00;;;11.27;100.00
4586;BME280;2305;50.118;8.952;2023-04-20T08:20:08;100513.69;;;11.40;100.00
4586;BME280;2305;50.118;8.952;2023-04-20T08:22:37;100508.09;;;11.33;100.00
4586;BME280;2305;50.118;8.952;2023-04-20T08:25:06;100502.81;;;11.33;100.00
4586;BME280;2305;50.118;8.952;2023-04-20T08:27:36;100503.25;;;11.38;100.00
4586;BME280;2305;50.118;8.952;2023-04-20T08:30:05;100498.13;;;11.37;100.00
4586;BME280;2305;50.118;8.952;2023-04-20T08:32:33;100490.41;;;11.45;100.00
4586;BME280;2305;50.118;8.952;2023-04-20T08:35:04;100490.25;;;11.46;100.00
4586;BME280;2305;50.118;8.952;2023-04-20T08:37:34;100492.47;;;11.41;100.00
4586;BME280;2305;50.118;8.952;2023-04-20T08:40:03;100486.09;;;11.44;100.00
4586;BME280;2305;50.118;8.952;2023-04-20T08:42:33;100494.25;;;11.41;100.00
4586;BME280;2305;50.118;8.952;2023-04-20T08:45:06;100480.75;;;11.55;100.00
4586;BME280;2305;50.118;8.952;2023-04-20T08:47:35;100481.19;;;11.71;100.00
4586;BME280;2305;50.118;8.952;2023-04-20T08:50:04;100474.59;;;11.86;100.00
4586;BME280;2305;50.118;8.952;2023-04-20T08:52:33;100474.63;;;12.06;100.00
4586;BME280;2305;50.118;8.952;2023-04-20T08:55:05;100483.00;;;12.11;100.00
4586;BME280;2305;50.118;8.952;2023-04-20T08:57:34;100476.34;;;12.17;100.00
4586;BME280;2305;50.118;8.952;2023-04-20T09:00:08;100471.06;;;12.17;100.00
4586;BME280;2305;50.118;8.952;2023-04-20T09:02:49;100473.41;;;12.20;100.00
4586;BME280;2305;50.118;8.952;2023-04-20T09:05:25;100469.66;;;12.52;100.00
4586;BME280;2305;50.118;8.952;2023-04-20T09:07:56;100473.19;;;12.23;100.00
4586;BME280;2305;50.118;8.952;2023-04-20T09:10:26;100470.78;;;12.20;100.00
4586;BME280;2305;50.118;8.952;2023-04-20T09:13:05;100462.22;;;12.27;100.00
4586;BME280;2305;50.118;8.952;2023-04-20T09:15:36;100461.81;;;12.32;100.00
4586;BME280;2305;50.118;8.952;2023-04-20T09:18:11;100459.84;;;12.34;100.00
4586;BME280;2305;50.118;8.952;2023-04-20T09:20:42;100453.47;;;12.36;100.00
4586;BME280;2305;50.118;8.952;2023-04-20T09:23:11;100462.38;;;12.35;100.00
4586;BME280;2305;50.118;8.952;2023-04-20T09:25:41;100463.19;;;12.36;100.00
4586;BME280;2305;50.118;8.952;2023-04-20T09:28:12;100451.63;;;12.27;100.00
4586;BME280;2305;50.118;8.952;2023-04-20T09:30:45;100451.63;;;12.27;100.00
4586;BME280;2305;50.118;8.952;2023-04-20T09:33:17;100448.34;;;12.44;100.00
4586;BME280;2305;50.118;8.952;2023-04-20T09:35:48;100448.88;;;12.68;100.00
4586;BME280;2305;50.118;8.952;2023-04-20T09:38:16;100445.09;;;12.71;100.00
4586;BME280;2305;50.118;8.952;2023-04-20T09:40:44;100440.41;;;12.93;100.00
4586;BME280;2305;50.118;8.952;2023-04-20T09:43:17;100431.28;;;13.16;100.00
4586;BME280;2305;50.118;8.952;2023-04-20T09:45:47;100429.50;;;13.36;96.03
4586;BME280;2305;50.118;8.952;2023-04-20T09:48:19;100420.84;;;13.43;95.74
4586;BME280;2305;50.118;8.952;2023-04-20T09:50:48;100419.03;;;13.44;96.44
4586;BME280;2305;50.118;8.952;2023-04-20T09:53:21;100417.88;;;13.46;93.35
4586;BME280;2305;50.118;8.952;2023-04-20T09:55:51;100414.97;;;13.49;93.31
4586;BME280;2305;50.118;8.952;2023-04-20T09:58:23;100411.91;;;13.54;92.09
4586;BME280;2305;50.118;8.952;2023-04-20T10:00:54;100402.00;;;13.65;92.84
4586;BME280;2305;50.118;8.952;2023-04-20T10:03:22;100403.06;;;13.81;91.71
4586;BME280;2305;50.118;8.952;2023-04-20T10:05:52;100405.56;;;13.92;84.62
4586;BME280;2305;50.118;8.952;2023-04-20T10:08:22;100404.06;;;14.17;86.95
4586;BME280;2305;50.118;8.952;2023-04-20T10:10:54;100390.56;;;14.47;86.44
4586;BME280;2305;50.118;8.952;2023-04-20T10:13:32;100400.09;;;14.67;87.01
4586;BME280;2305;50.118;8.952;2023-04-20T10:16:02;100392.00;;;15.03;82.24
4586;BME280;2305;50.118;8.952;2023-04-20T10:18:30;100393.44;;;15.15;78.26
4586;BME280;2305;50.118;8.952;2023-04-20T10:21:06;100388.88;;;15.43;77.65
4586;BME280;2305;50.118;8.952;2023-04-20T10:23:46;100386.19;;;15.60;75.74
4586;BME280;2305;50.118;8.952;2023-04-20T10:26:15;100386.19;;;15.60;71.90
4586;BME280;2305;50.118;8.952;2023-04-20T10:28:43;100376.97;;;15.29;66.70
4586;BME280;2305;50.118;8.952;2023-04-20T10:31:15;100383.56;;;15.25;71.28
4586;BME280;2305;50.118;8.952;2023-04-20T10:33:50;100380.16;;;15.15;71.20
4586;BME280;2305;50.118;8.952;2023-04-20T10:36:22;100373.34;;;15.13;73.05
4586;BME280;2305;50.118;8.952;2023-04-20T10:38:51;100376.00;;;15.13;73.62
4586;BME280;2305;50.118;8.952;2023-04-20T10:41:28;100360.97;;;15.21;70.85
4586;BME280;2305;50.118;8.952;2023-04-20T10:44:06;100367.53;;;15.52;71.15
4586;BME280;2305;50.118;8.952;2023-04-20T10:46:36;100368.16;;;15.46;68.37
4586;BME280;2305;50.118;8.952;2023-04-20T10:49:05;100366.50;;;15.45;66.80
4586;BME280;2305;50.118;8.952;2023-04-20T10:51:34;100364.41;;;15.31;64.30
4586;BME280;2305;50.118;8.952;2023-04-20T10:54:03;100367.72;;;15.16;62.66
4586;BME280;2305;50.118;8.952;2023-04-20T10:56:39;100364.63;;;15.03;61.89
4586;BME280;2305;50.118;8.952;2023-04-20T10:59:09;100362.13;;;14.84;63.51
4586;BME280;2305;50.118;8.952;2023-04-20T11:01:38;100364.25;;;14.80;67.05
4586;BME280;2305;50.118;8.952;2023-04-20T11:04:09;100360.06;;;14.78;67.17
4586;BME280;2305;50.118;8.952;2023-04-20T11:06:37;100356.88;;;14.92;64.69
4586;BME280;2305;50.118;8.952;2023-04-20T11:09:19;100357.88;;;14.91;62.26
4586;BME280;2305;50.118;8.952;2023-04-20T11:11:59;100354.22;;;15.09;63.81
4586;BME280;2305;50.118;8.952;2023-04-20T11:14:28;100336.41;;;15.02;64.44
4586;BME280;2305;50.118;8.952;2023-04-20T11:16:58;100345.19;;;15.20;65.39
4586;BME280;2305;50.118;8.952;2023-04-20T11:19:28;100342.53;;;15.20;65.08
4586;BME280;2305;50.118;8.952;2023-04-20T11:21:56;100334.19;;;15.15;61.25
4586;BME280;2305;50.118;8.952;2023-04-20T11:24:27;100333.38;;;15.32;59.73
4586;BME280;2305;50.118;8.952;2023-04-20T11:27:01;100336.16;;;15.48;60.86
4586;BME280;2305;50.118;8.952;2023-04-20T11:29:32;100328.03;;;15.49;60.34
4586;BME280;2305;50.118;8.952;2023-04-20T11:32:06;100325.72;;;15.54;62.72
4586;BME280;2305;50.118;8.952;2023-04-20T11:34:38;100330.94;;;15.64;63.22
4586;BME280;2305;50.118;8.952;2023-04-20T11:37:08;100328.66;;;15.43;61.38
4586;BME280;2305;50.118;8.952;2023-04-20T11:39:38;100317.50;;;15.40;59.31
4586;BME280;2305;50.118;8.952;2023-04-20T11:42:07;100311.63;;;15.54;60.47
4586;BME280;2305;50.118;8.952;2023-04-20T11:44:35;100312.50;;;15.62;59.71
4586;BME280;2305;50.118;8.952;2023-04-20T11:47:09;100308.03;;;15.63;60.18
4586;BME280;2305;50.118;8.952;2023-04-20T11:49:37;100304.88;;;15.67;57.80
4586;BME280;2305;50.118;8.952;2023-04-20T11:52:05;100304.81;;;15.85;58.96
4586;BME280;2305;50.118;8.952;2023-04-20T11:54:33;100307.53;;;16.01;57.85
4586;BME280;2305;50.118;8.952;2023-04-20T11:57:02;100302.91;;;16.03;56.10
4586;BME280;2305;50.118;8.952;2023-04-20T11:59:30;100293.66;;;16.23;57.45
4586;BME280;2305;50.118;8.952;2023-04-20T12:01:58;100303.66;;;16.29;55.02
4586;BME280;2305;50.118;8.952;2023-04-20T12:04:31;100293.53;;;16.32;56.84
4586;BME280;2305;50.118;8.952;2023-04-20T12:07:00;100300.31;;;16.19;55.32
4586;BME280;2305;50.118;8.952;2023-04-20T12:09:29;100298.44;;;16.11;57.10
4586;BME280;2305;50.118;8.952;2023-04-20T12:12:01;100292.97;;;16.13;55.80
4586;BME280;2305;50.118;8.952;2023-04-20T12:14:29;100287.69;;;16.29;54.63
4586;BME280;2305;50.118;8.952;2023-04-20T12:17:00;100284.44;;;16.43;55.27
4586;BME280;2305;50.118;8.952;2023-04-20T12:19:31;100286.78;;;16.46;56.01
4586;BME280;2305;50.118;8.952;2023-04-20T12:21:59;100291.94;;;16.47;55.61
4586;BME280;2305;50.118;8.952;2023-04-20T12:24:27;100277.47;;;16.58;53.74
4586;BME280;2305;50.118;8.952;2023-04-20T12:26:55;100283.31;;;16.69;54.72
4586;BME280;2305;50.118;8.952;2023-04-20T12:29:24;100286.47;;;16.65;52.14
4586;BME280;2305;50.118;8.952;2023-04-20T12:31:53;100281.84;;;16.59;54.59
4586;BME280;2305;50.118;8.952;2023-04-20T12:34:22;100283.16;;;16.63;52.20
4586;BME280;2305;50.118;8.952;2023-04-20T12:36:56;100289.47;;;16.62;51.48
4586;BME280;2305;50.118;8.952;2023-04-20T12:39:23;100288.25;;;16.40;48.60
4586;BME280;2305;50.118;8.952;2023-04-20T12:41:56;100281.59;;;16.36;49.19
4586;BME280;2305;50.118;8.952;2023-04-20T12:44:24;100284.03;;;16.30;49.57
4586;BME280;2305;50.118;8.952;2023-04-20T12:46:52;100283.03;;;16.23;50.16
4586;BME280;2305;50.118;8.952;2023-04-20T12:49:24;100274.66;;;16.02;50.59
4586;BME280;2305;50.118;8.952;2023-04-20T12:51:51;100284.00;;;15.72;52.21
4586;BME280;2305;50.118;8.952;2023-04-20T12:54:21;100286.16;;;15.69;52.79
4586;BME280;2305;50.118;8.952;2023-04-20T12:56:49;100280.69;;;15.70;53.57
4586;BME280;2305;50.118;8.952;2023-04-20T12:59:17;100288.72;;;15.10;52.47
4586;BME280;2305;50.118;8.952;2023-04-20T13:01:45;100288.59;;;15.19;54.11
4586;BME280;2305;50.118;8.952;2023-04-20T13:04:13;100292.16;;;15.28;54.58
4586;BME280;2305;50.118;8.952;2023-04-20T13:06:42;100291.53;;;15.08;53.21
4586;BME280;2305;50.118;8.952;2023-04-20T13:09:10;100285.75;;;15.13;53.44
4586;BME280;2305;50.118;8.952;2023-04-20T13:11:39;100291.38;;;15.10;53.68
4586;BME280;2305;50.118;8.952;2023-04-20T13:14:08;100290.25;;;14.95;54.50
4586;BME280;2305;50.118;8.952;2023-04-20T13:16:36;100288.66;;;14.84;55.15
4586;BME280;2305;50.118;8.952;2023-04-20T13:19:04;100296.09;;;14.81;56.79
4586;BME280;2305;50.118;8.952;2023-04-20T13:21:32;100291.56;;;14.73;57.23
4586;BME280;2305;50.118;8.952;2023-04-20T13:24:00;100296.84;;;14.56;56.41
4586;BME280;2305;50.118;8.952;2023-04-20T13:26:28;100302.38;;;14.45;59.09